createdAt,value
2023-03-06T00:01:59.683Z,5.88
2023-03-06T00:04:26.077Z,5.25
2023-03-06T00:06:52.934Z,5.38
2023-03-06T00:09:19.286Z,5.38
2023-03-06T00:11:45.643Z,6.43
2023-03-06T00:14:11.986Z,5.13
2023-03-06T00:16:38.345Z,5.00
2023-03-06T00:19:04.740Z,5.03
2023-03-06T00:21:31.024Z,4.47
2023-03-06T00:23:57.395Z,4.63
2023-03-06T00:26:23.738Z,4.85
2023-03-06T00:28:50.037Z,4.47
2023-03-06T00:31:16.305Z,7.05
2023-03-06T00:33:43.542Z,5.88
2023-03-06T00:36:10.019Z,6.65
2023-03-06T00:38:37.239Z,4.90
2023-03-06T00:41:07.381Z,5.38
2023-03-06T00:43:33.636Z,6.65
2023-03-06T00:45:59.978Z,5.00
2023-03-06T00:48:26.376Z,5.47
2023-03-06T00:50:52.713Z,6.15
2023-03-06T00:53:19.032Z,4.75
2023-03-06T00:55:45.590Z,5.90
2023-03-06T00:58:12.334Z,5.65
2023-03-06T01:00:38.723Z,5.20
2023-03-06T01:03:05.058Z,4.43
2023-03-06T01:05:34.186Z,5.72
2023-03-06T01:08:00.646Z,6.65
2023-03-06T01:10:27.347Z,6.93
2023-03-06T01:12:54.342Z,5.57
2023-03-06T01:15:21.207Z,6.85
2023-03-06T01:17:47.698Z,6.28
2023-03-06T01:20:15.255Z,6.05
2023-03-06T01:22:41.753Z,6.93
2023-03-06T01:25:08.326Z,5.38
2023-03-06T01:27:34.595Z,6.65
2023-03-06T01:30:00.888Z,5.60
2023-03-06T01:32:27.498Z,6.35
2023-03-06T01:34:54.036Z,5.32
2023-03-06T01:37:20.374Z,5.75
2023-03-06T01:39:46.635Z,6.18
2023-03-06T01:42:12.999Z,6.00
2023-03-06T01:45:18.006Z,5.80
2023-03-06T01:47:45.141Z,6.78
2023-03-06T01:50:11.796Z,6.30
2023-03-06T01:52:58.244Z,7.18
2023-03-06T01:55:33.111Z,5.88
2023-03-06T01:58:00.937Z,6.97
2023-03-06T02:00:28.551Z,6.53
2023-03-06T02:02:56.694Z,7.75
2023-03-06T02:05:23.041Z,6.57
2023-03-06T02:07:50.108Z,7.68
2023-03-06T02:10:17.246Z,6.50
2023-03-06T02:12:44.101Z,6.20
2023-03-06T02:15:11.347Z,6.15
2023-03-06T02:17:37.806Z,6.68
2023-03-06T02:20:12.281Z,6.70
2023-03-06T02:22:44.794Z,7.18
2023-03-06T02:25:25.839Z,7.53
2023-03-06T02:27:52.136Z,6.85
2023-03-06T02:30:19.017Z,9.98
2023-03-06T02:32:45.335Z,6.97
2023-03-06T02:35:18.191Z,6.47
2023-03-06T02:37:45.006Z,7.57
2023-03-06T02:40:13.903Z,8.10
2023-03-06T02:42:45.433Z,10.07
2023-03-06T02:45:12.594Z,7.45
2023-03-06T02:47:38.907Z,7.05
2023-03-06T02:50:05.226Z,7.25
2023-03-06T02:52:31.611Z,6.82
2023-03-06T02:54:57.952Z,7.80
2023-03-06T02:57:24.333Z,5.75
2023-03-06T02:59:50.691Z,7.75
2023-03-06T03:02:17.002Z,7.00
2023-03-06T03:04:43.367Z,6.70
2023-03-06T03:07:09.722Z,8.30
2023-03-06T03:09:37.342Z,8.02
2023-03-06T03:12:07.059Z,7.53
2023-03-06T03:14:33.737Z,8.40
2023-03-06T03:17:00.532Z,7.85
2023-03-06T03:19:26.948Z,6.65
2023-03-06T03:21:53.309Z,9.57
2023-03-06T03:24:19.727Z,8.88
2023-03-06T03:26:46.109Z,7.55
2023-03-06T03:29:12.529Z,8.32
2023-03-06T03:31:38.851Z,7.00
2023-03-06T03:34:05.356Z,7.53
2023-03-06T03:36:31.735Z,7.90
2023-03-06T03:38:58.174Z,7.40
2023-03-06T03:41:24.735Z,7.85
2023-03-06T03:43:51.137Z,8.45
2023-03-06T03:46:17.585Z,11.73
2023-03-06T03:48:43.930Z,8.70
2023-03-06T03:51:11.445Z,9.55
2023-03-06T03:53:37.799Z,9.35
2023-03-06T03:56:04.407Z,9.05
2023-03-06T03:58:31.042Z,9.27
2023-03-06T04:00:57.315Z,9.35
2023-03-06T04:03:23.596Z,9.35
2023-03-06T04:05:49.914Z,8.20
2023-03-06T04:08:16.220Z,10.32
2023-03-06T04:10:42.650Z,9.30
2023-03-06T04:13:10.206Z,9.00
2023-03-06T04:15:36.978Z,8.82
2023-03-06T04:18:03.452Z,8.80
2023-03-06T04:20:29.845Z,9.88
2023-03-06T04:22:56.258Z,8.57
2023-03-06T04:25:22.623Z,9.82
2023-03-06T04:27:49.008Z,8.93
2023-03-06T04:30:15.377Z,9.68
2023-03-06T04:32:41.719Z,9.27
2023-03-06T04:35:08.275Z,9.98
2023-03-06T04:37:34.624Z,9.68
2023-03-06T04:40:00.904Z,8.45
2023-03-06T04:42:27.364Z,8.82
2023-03-06T04:44:53.681Z,8.63
2023-03-06T04:47:20.362Z,8.65
2023-03-06T04:49:46.698Z,9.25
2023-03-06T04:52:13.065Z,9.55
2023-03-06T04:54:39.354Z,9.30
2023-03-06T04:57:05.655Z,10.45
2023-03-06T04:59:32.149Z,8.85
2023-03-06T05:01:58.582Z,9.98
2023-03-06T05:04:24.968Z,10.23
2023-03-06T05:06:51.264Z,9.70
2023-03-06T05:09:17.542Z,9.82
2023-03-06T05:11:43.904Z,14.68
2023-03-06T05:14:10.255Z,11.63
2023-03-06T05:16:36.612Z,11.07
2023-03-06T05:19:03.418Z,10.70
2023-03-06T05:21:29.729Z,11.27
2023-03-06T05:23:56.089Z,11.27
2023-03-06T05:26:22.454Z,10.70
2023-03-06T05:28:48.805Z,11.43
2023-03-06T05:31:17.637Z,11.10
2023-03-06T05:33:44.011Z,10.32
2023-03-06T05:36:10.413Z,11.70
2023-03-06T05:38:36.776Z,11.43
2023-03-06T05:41:03.601Z,10.73
2023-03-06T05:43:30.068Z,9.75
2023-03-06T05:46:00.116Z,10.90
2023-03-06T05:48:26.457Z,9.55
2023-03-06T05:51:00.200Z,9.60
2023-03-06T05:53:26.885Z,11.10
2023-03-06T05:56:00.858Z,10.48
2023-03-06T05:58:28.037Z,9.25
2023-03-06T06:00:54.466Z,9.23
2023-03-06T06:03:20.942Z,8.65
2023-03-06T06:05:47.632Z,10.88
2023-03-06T06:08:13.991Z,10.23
2023-03-06T06:10:40.273Z,11.23
2023-03-06T06:13:06.586Z,8.90
2023-03-06T06:15:33.060Z,10.38
2023-03-06T06:17:59.395Z,10.35
2023-03-06T06:20:25.743Z,9.55
2023-03-06T06:22:52.006Z,11.13
2023-03-06T06:25:18.311Z,10.98
2023-03-06T06:27:44.557Z,10.30
2023-03-06T06:30:12.200Z,14.00
2023-03-06T06:32:38.580Z,10.70
2023-03-06T06:35:07.636Z,10.13
2023-03-06T06:37:34.035Z,14.38
2023-03-06T06:40:00.413Z,11.43
2023-03-06T06:42:33.314Z,11.27
2023-03-06T06:45:05.188Z,10.45
2023-03-06T06:47:31.979Z,9.88
2023-03-06T06:49:58.431Z,15.10
2023-03-06T06:52:25.026Z,9.90
2023-03-06T06:54:51.838Z,14.13
2023-03-06T06:57:18.418Z,11.20
2023-03-06T06:59:44.723Z,10.68
2023-03-06T07:02:12.104Z,10.95
2023-03-06T07:04:44.257Z,14.35
2023-03-06T07:07:15.594Z,13.32
2023-03-06T07:09:41.996Z,12.10
2023-03-06T07:12:08.790Z,12.10
2023-03-06T07:14:35.559Z,13.63
2023-03-06T07:17:01.900Z,12.63
2023-03-06T07:19:28.212Z,12.98
2023-03-06T07:21:54.461Z,15.07
2023-03-06T07:24:20.773Z,10.63
2023-03-06T07:26:47.768Z,12.95
2023-03-06T07:29:14.428Z,12.50
2023-03-06T07:31:40.940Z,11.48
2023-03-06T07:34:07.263Z,15.38
2023-03-06T07:36:34.537Z,13.65
2023-03-06T07:39:01.871Z,11.45
2023-03-06T07:41:28.288Z,12.98
2023-03-06T07:43:54.533Z,13.82
2023-03-06T07:46:20.843Z,13.32
2023-03-06T07:48:47.218Z,11.75
2023-03-06T07:51:15.586Z,13.35
2023-03-06T07:53:42.443Z,12.95
2023-03-06T07:56:09.364Z,13.45
2023-03-06T07:58:36.417Z,14.85
2023-03-06T08:01:03.943Z,15.43
2023-03-06T08:03:30.284Z,14.27
2023-03-06T08:06:04.626Z,13.88
2023-03-06T08:08:31.002Z,13.80
2023-03-06T08:10:57.342Z,15.57
2023-03-06T08:13:23.577Z,13.45
2023-03-06T08:15:49.853Z,15.05
2023-03-06T08:18:16.173Z,13.43
2023-03-06T08:20:42.508Z,12.50
2023-03-06T08:23:08.824Z,13.55
2023-03-06T08:25:35.174Z,13.75
2023-03-06T08:28:01.900Z,14.93
2023-03-06T08:30:29.032Z,13.15
2023-03-06T08:32:55.355Z,15.90
2023-03-06T08:35:21.780Z,14.50
2023-03-06T08:37:48.119Z,13.43
2023-03-06T08:40:14.421Z,12.98
2023-03-06T08:42:40.773Z,12.82
2023-03-06T08:45:07.540Z,14.27
2023-03-06T08:47:34.611Z,13.77
2023-03-06T08:50:01.019Z,12.23
2023-03-06T08:52:27.350Z,14.13
2023-03-06T08:54:53.608Z,14.05
2023-03-06T08:57:19.953Z,14.40
2023-03-06T08:59:46.234Z,13.27
2023-03-06T09:02:12.974Z,14.52
2023-03-06T09:04:39.355Z,12.30
2023-03-06T09:07:05.711Z,13.00
2023-03-06T09:09:32.018Z,13.70
2023-03-06T09:11:58.362Z,14.05
2023-03-06T09:14:24.614Z,11.30
2023-03-06T09:16:50.999Z,12.43
2023-03-06T09:19:17.758Z,13.00
2023-03-06T09:21:44.109Z,11.85
2023-03-06T09:24:10.378Z,13.10
2023-03-06T09:26:45.671Z,13.93
2023-03-06T09:29:13.056Z,12.75
2023-03-06T09:31:39.417Z,14.13
2023-03-06T09:34:05.799Z,13.25
2023-03-06T09:36:40.083Z,13.60
2023-03-06T09:39:12.167Z,13.65
2023-03-06T09:41:40.450Z,15.45
2023-03-06T09:44:08.657Z,12.52
2023-03-06T09:46:59.185Z,12.50
2023-03-06T09:49:40.577Z,11.38
2023-03-06T09:52:25.757Z,11.02
2023-03-06T09:54:53.910Z,12.25
2023-03-06T09:57:22.505Z,11.13
2023-03-06T09:59:50.819Z,11.15
2023-03-06T10:02:24.813Z,12.68
2023-03-06T10:04:54.460Z,11.40
2023-03-06T10:07:23.119Z,13.00
2023-03-06T10:09:56.512Z,14.02
2023-03-06T10:12:25.005Z,14.85
2023-03-06T10:14:57.895Z,13.40
2023-03-06T10:17:26.087Z,12.07
2023-03-06T10:19:52.535Z,13.02
2023-03-06T10:22:28.846Z,10.88
2023-03-06T10:25:14.192Z,11.55
2023-03-06T10:27:46.619Z,11.43
2023-03-06T10:30:15.951Z,9.95
2023-03-06T10:32:49.458Z,10.23
2023-03-06T10:35:21.551Z,12.00
2023-03-06T10:37:48.340Z,12.15
2023-03-06T10:40:24.806Z,11.23
2023-03-06T10:43:01.605Z,9.80
2023-03-06T10:45:49.245Z,11.15
2023-03-06T10:48:18.410Z,11.02
2023-03-06T10:50:44.709Z,13.05
2023-03-06T10:53:22.421Z,9.45
2023-03-06T10:55:53.985Z,11.15
2023-03-06T10:58:38.413Z,13.40
2023-03-06T11:01:07.402Z,12.48
2023-03-06T11:03:34.761Z,10.65
2023-03-06T11:06:03.965Z,10.35
2023-03-06T11:08:30.432Z,11.55
2023-03-06T11:10:58.140Z,11.40
2023-03-06T11:13:26.193Z,9.52
2023-03-06T11:16:01.538Z,11.20
2023-03-06T11:18:31.010Z,9.38
2023-03-06T11:20:57.362Z,10.45
2023-03-06T11:23:36.235Z,10.70
2023-03-06T11:26:17.888Z,9.93
2023-03-06T11:28:48.045Z,10.60
2023-03-06T11:31:32.237Z,8.38
2023-03-06T11:34:01.536Z,9.50
2023-03-06T11:36:38.403Z,9.82
2023-03-06T11:39:15.634Z,12.30
2023-03-06T11:41:48.023Z,10.98
2023-03-06T11:44:23.118Z,11.48
2023-03-06T11:47:12.739Z,9.18
2023-03-06T11:50:05.418Z,10.10
2023-03-06T11:52:40.293Z,8.38
2023-03-06T11:55:08.697Z,9.02
2023-03-06T11:57:50.094Z,10.27
2023-03-06T12:00:16.620Z,9.40
2023-03-06T12:03:01.815Z,8.70
2023-03-06T12:05:28.188Z,9.05
2023-03-06T12:08:20.608Z,10.43
2023-03-06T12:10:51.812Z,11.10
2023-03-06T12:15:54.326Z,8.65
2023-03-06T12:18:23.698Z,9.88
2023-03-06T12:21:05.620Z,11.52
2023-03-06T12:23:31.911Z,8.95
2023-03-06T12:26:17.111Z,9.35
2023-03-06T12:28:56.528Z,9.82
2023-03-06T12:31:26.471Z,11.57
2023-03-06T12:34:11.641Z,9.90
2023-03-06T12:36:56.918Z,10.25
2023-03-06T12:39:41.600Z,10.45
2023-03-06T12:42:11.481Z,9.15
2023-03-06T12:44:47.328Z,8.85
2023-03-06T12:47:20.159Z,9.98
2023-03-06T12:49:53.125Z,12.35
2023-03-06T12:52:29.579Z,9.93
2023-03-06T12:54:57.163Z,11.13
2023-03-06T12:57:24.826Z,8.77
2023-03-06T12:59:51.345Z,9.43
2023-03-06T13:02:22.684Z,8.27
2023-03-06T13:04:52.082Z,8.88
2023-03-06T13:07:37.356Z,8.43
2023-03-06T13:10:03.581Z,9.90
2023-03-06T13:12:29.931Z,8.95
2023-03-06T13:14:57.490Z,9.85
2023-03-06T13:17:23.770Z,8.85
2023-03-06T13:20:10.017Z,9.68
2023-03-06T13:22:36.298Z,10.85
2023-03-06T13:25:21.117Z,7.78
2023-03-06T13:27:53.567Z,8.90
2023-03-06T13:30:40.272Z,8.50
2023-03-06T13:33:39.284Z,11.55
2023-03-06T13:36:28.524Z,8.70
2023-03-06T13:38:56.163Z,8.95
2023-03-06T13:41:22.537Z,11.40
2023-03-06T13:43:50.392Z,9.20
2023-03-06T13:46:30.934Z,8.30
2023-03-06T13:49:13.668Z,9.75
2023-03-06T13:51:39.921Z,8.80
2023-03-06T13:54:21.582Z,11.05
2023-03-06T13:56:55.011Z,9.07
2023-03-06T13:59:21.286Z,10.20
2023-03-06T14:01:57.089Z,9.35
2023-03-06T14:04:43.696Z,9.65
2023-03-06T14:07:21.776Z,10.38
2023-03-06T14:09:51.692Z,10.60
2023-03-06T14:12:24.076Z,10.38
2023-03-06T14:14:59.977Z,10.07
2023-03-06T14:17:36.086Z,9.73
2023-03-06T14:20:15.789Z,10.05
2023-03-06T14:22:42.370Z,10.40
2023-03-06T14:25:11.525Z,9.75
2023-03-06T14:27:39.355Z,9.02
2023-03-06T14:30:06.647Z,10.57
2023-03-06T14:32:32.998Z,8.75
2023-03-06T14:34:59.371Z,9.27
2023-03-06T14:37:25.710Z,11.40
2023-03-06T14:39:52.165Z,9.20
2023-03-06T14:42:20.528Z,10.57
2023-03-06T14:44:47.901Z,8.85
2023-03-06T14:47:28.159Z,10.27
2023-03-06T14:50:13.327Z,9.15
2023-03-06T14:52:39.762Z,9.77
2023-03-06T14:55:16.002Z,9.65
2023-03-06T14:57:42.778Z,12.07
2023-03-06T15:00:17.293Z,11.43
2023-03-06T15:02:44.202Z,9.95
2023-03-06T15:05:20.856Z,11.57
2023-03-06T15:07:47.191Z,9.10
2023-03-06T15:10:21.266Z,10.93
2023-03-06T15:12:47.594Z,13.48
2023-03-06T15:15:13.861Z,8.75
2023-03-06T15:17:42.069Z,11.70
2023-03-06T15:20:28.482Z,10.07
2023-03-06T15:22:54.737Z,8.80
2023-03-06T15:25:30.015Z,8.98
2023-03-06T15:28:01.194Z,11.00
2023-03-06T15:30:27.637Z,10.65
2023-03-06T15:33:09.450Z,9.40
2023-03-06T15:35:37.879Z,12.35
2023-03-06T15:38:22.418Z,11.35
2023-03-06T15:40:55.301Z,12.35
2023-03-06T15:43:23.058Z,14.40
2023-03-06T15:45:49.470Z,12.07
2023-03-06T15:48:17.055Z,13.48
2023-03-06T15:50:43.402Z,13.20
2023-03-06T15:53:09.680Z,14.85
2023-03-06T15:55:36.798Z,12.65
2023-03-06T15:58:04.570Z,14.48
2023-03-06T16:00:34.125Z,15.27
2023-03-06T16:03:02.349Z,15.63
2023-03-06T16:05:29.062Z,13.50
2023-03-06T16:07:55.681Z,16.52
2023-03-06T16:10:23.154Z,13.45
2023-03-06T16:13:11.068Z,12.70
2023-03-06T16:15:39.596Z,12.88
2023-03-06T16:18:06.449Z,12.43
2023-03-06T16:20:33.462Z,12.75
2023-03-06T16:22:59.766Z,14.73
2023-03-06T16:25:27.017Z,12.52
2023-03-06T16:28:00.992Z,12.50
2023-03-06T16:30:28.969Z,12.50
2023-03-06T16:32:55.949Z,12.23
2023-03-06T16:35:22.421Z,10.35
2023-03-06T16:37:49.071Z,11.77
2023-03-06T16:40:15.322Z,10.73
2023-03-06T16:42:41.604Z,11.32
2023-03-06T16:45:08.299Z,13.38
2023-03-06T16:47:34.642Z,12.57
2023-03-06T16:50:02.222Z,12.05
2023-03-06T16:52:28.769Z,11.82
2023-03-06T16:54:55.127Z,12.65
2023-03-06T16:57:21.432Z,11.02
2023-03-06T16:59:47.837Z,11.95
2023-03-06T17:02:14.171Z,12.02
2023-03-06T17:04:40.519Z,13.40
2023-03-06T17:07:06.844Z,10.68
2023-03-06T17:09:33.161Z,10.25
2023-03-06T17:11:59.648Z,12.40
2023-03-06T17:14:26.439Z,10.10
2023-03-06T17:16:54.869Z,11.82
2023-03-06T17:19:22.878Z,13.52
2023-03-06T17:21:51.554Z,10.38
2023-03-06T17:24:18.121Z,12.00
2023-03-06T17:26:47.313Z,12.15
2023-03-06T17:29:13.820Z,10.45
2023-03-06T17:31:40.122Z,13.45
2023-03-06T17:34:06.437Z,11.98
2023-03-06T17:36:32.826Z,12.00
2023-03-06T17:39:00.084Z,10.73
2023-03-06T17:41:26.490Z,11.35
2023-03-06T17:43:54.877Z,13.13
2023-03-06T17:46:21.510Z,11.45
2023-03-06T17:48:47.836Z,11.57
2023-03-06T17:51:14.352Z,12.63
2023-03-06T17:53:40.622Z,12.93
2023-03-06T17:56:08.416Z,11.60
2023-03-06T17:58:34.863Z,11.40
2023-03-06T18:01:08.824Z,10.88
2023-03-06T18:03:37.377Z,12.10
2023-03-06T18:06:05.274Z,11.43
2023-03-06T18:08:32.226Z,12.57
2023-03-06T18:11:04.105Z,11.90
2023-03-06T18:13:31.367Z,11.75
2023-03-06T18:15:58.046Z,11.07
2023-03-06T18:18:24.553Z,11.90
2023-03-06T18:20:50.865Z,11.68
2023-03-06T18:23:17.286Z,14.25
2023-03-06T18:25:43.612Z,12.30
2023-03-06T18:28:10.025Z,12.63
2023-03-06T18:30:43.416Z,11.80
2023-03-06T18:33:10.127Z,12.93
2023-03-06T18:35:37.042Z,14.25
2023-03-06T18:38:06.439Z,11.13
2023-03-06T18:40:32.785Z,14.40
2023-03-06T18:42:59.097Z,10.60
2023-03-06T18:45:25.471Z,13.57
2023-03-06T18:47:52.083Z,14.27
2023-03-06T18:50:18.530Z,13.63
2023-03-06T18:52:44.974Z,12.65
2023-03-06T18:55:11.906Z,13.75
2023-03-06T18:57:39.112Z,16.33
2023-03-06T19:00:42.620Z,15.75
2023-03-06T19:05:50.020Z,14.02
2023-03-06T19:08:17.250Z,13.00
2023-03-06T19:10:46.101Z,12.10
2023-03-06T19:13:13.009Z,14.25
2023-03-06T19:15:43.354Z,14.52
2023-03-06T19:18:10.220Z,13.18
2023-03-06T19:20:36.548Z,12.93
2023-03-06T19:23:04.052Z,14.23
2023-03-06T19:25:30.357Z,13.35
2023-03-06T19:27:56.598Z,14.80
2023-03-06T19:30:25.579Z,12.93
2023-03-06T19:32:52.604Z,12.32
2023-03-06T19:35:23.185Z,12.70
2023-03-06T19:37:49.537Z,14.00
2023-03-06T19:40:16.053Z,12.57
2023-03-06T19:42:42.388Z,13.52
2023-03-06T19:45:09.099Z,16.23
2023-03-06T19:47:35.408Z,16.23
2023-03-06T19:50:01.834Z,15.68
2023-03-06T19:52:28.153Z,15.57
2023-03-06T19:54:54.438Z,13.18
2023-03-06T19:57:20.777Z,13.98
2023-03-06T19:59:57.543Z,13.13
2023-03-06T20:02:27.152Z,13.00
2023-03-06T20:04:54.178Z,13.73
2023-03-06T20:07:20.556Z,14.65
2023-03-06T20:09:48.136Z,14.10
2023-03-06T20:12:14.748Z,15.35
2023-03-06T20:14:41.353Z,14.43
2023-03-06T20:17:07.897Z,13.40
2023-03-06T20:19:34.506Z,14.88
2023-03-06T20:22:00.782Z,13.88
2023-03-06T20:24:27.666Z,16.05
2023-03-06T20:26:57.404Z,13.77
2023-03-06T20:29:24.499Z,14.57
2023-03-06T20:31:54.966Z,14.38
2023-03-06T20:34:21.598Z,13.20
2023-03-06T20:36:48.039Z,13.82
2023-03-06T20:39:15.760Z,15.02
2023-03-06T20:41:42.485Z,13.98
2023-03-06T20:44:09.868Z,13.52
2023-03-06T20:46:37.084Z,13.52
2023-03-06T20:49:03.619Z,12.45
2023-03-06T20:51:31.582Z,14.10
2023-03-06T20:53:58.497Z,12.73
2023-03-06T20:56:26.167Z,14.93
2023-03-06T20:58:53.058Z,12.85
2023-03-06T21:01:20.459Z,13.98
2023-03-06T21:03:46.896Z,10.80
2023-03-06T21:06:13.209Z,12.82
2023-03-06T21:08:39.506Z,14.57
2023-03-06T21:11:05.768Z,13.45
2023-03-06T21:13:32.051Z,11.60
2023-03-06T21:15:58.501Z,13.32
2023-03-06T21:18:24.762Z,13.93
2023-03-06T21:20:51.116Z,12.23
2023-03-06T21:23:17.431Z,10.73
2023-03-06T21:25:47.723Z,12.50
2023-03-06T21:28:14.119Z,13.30
2023-03-06T21:30:40.476Z,13.48
2023-03-06T21:33:10.503Z,12.07
2023-03-06T21:35:40.437Z,11.73
2023-03-06T21:38:07.389Z,11.00
2023-03-06T21:40:34.347Z,11.35
2023-03-06T21:43:00.866Z,11.23
2023-03-06T21:45:30.196Z,12.43
2023-03-06T21:47:57.056Z,11.25
2023-03-06T21:50:23.732Z,11.82
2023-03-06T21:52:50.898Z,11.68
2023-03-06T21:55:17.280Z,12.60
2023-03-06T21:57:43.807Z,11.32
2023-03-06T22:00:14.410Z,12.43
2023-03-06T22:02:40.743Z,10.52
2023-03-06T22:05:07.264Z,8.82
2023-03-06T22:07:37.194Z,9.27
2023-03-06T22:10:04.287Z,9.98
2023-03-06T22:12:30.541Z,9.07
2023-03-06T22:14:56.862Z,9.57
2023-03-06T22:17:23.103Z,10.18
2023-03-06T22:19:49.598Z,10.35
2023-03-06T22:22:15.944Z,8.90
2023-03-06T22:24:42.226Z,9.13
2023-03-06T22:27:08.489Z,9.00
2023-03-06T22:29:34.897Z,7.88
2023-03-06T22:32:03.810Z,8.73
2023-03-06T22:34:30.137Z,7.82
2023-03-06T22:36:56.404Z,7.78
2023-03-06T22:39:22.722Z,7.18
2023-03-06T22:41:49.362Z,6.97
2023-03-06T22:44:16.889Z,8.05
2023-03-06T22:46:43.361Z,7.00
2023-03-06T22:49:10.615Z,6.53
2023-03-06T22:51:37.648Z,7.10
2023-03-06T22:54:04.451Z,6.82
2023-03-06T22:56:30.978Z,6.60
2023-03-06T22:58:57.777Z,7.05
2023-03-06T23:01:25.821Z,6.32
2023-03-06T23:03:53.166Z,6.88
2023-03-06T23:06:21.009Z,6.15
2023-03-06T23:08:55.376Z,6.00
2023-03-06T23:11:22.311Z,6.88
2023-03-06T23:13:48.593Z,6.85
2023-03-06T23:16:14.895Z,6.05
2023-03-06T23:18:41.258Z,5.22
2023-03-06T23:21:08.949Z,5.80
2023-03-06T23:23:35.641Z,6.57
2023-03-06T23:26:01.995Z,4.38
2023-03-06T23:28:28.503Z,5.60
2023-03-06T23:30:54.943Z,5.22
2023-03-06T23:33:21.248Z,4.65
2023-03-06T23:35:47.568Z,4.68
2023-03-06T23:38:14.050Z,5.22
2023-03-06T23:40:40.398Z,4.50
2023-03-06T23:43:06.717Z,5.03
2023-03-06T23:45:33.214Z,5.13
2023-03-06T23:47:59.516Z,4.78
2023-03-06T23:50:26.224Z,4.25
2023-03-06T23:52:53.459Z,4.68
2023-03-06T23:55:20.135Z,4.28
2023-03-06T23:57:46.463Z,4.55
